createdAt,value
2018-09-12T00:04:11.098Z,18.40
2018-09-12T00:09:15.798Z,18.30
2018-09-12T00:14:19.914Z,18.10
2018-09-12T00:24:27.757Z,17.90
2018-09-12T00:34:35.613Z,17.60
2018-09-12T00:39:39.640Z,17.60
2018-09-12T00:44:43.742Z,17.50
2018-09-12T00:49:47.779Z,17.50
2018-09-12T00:54:51.824Z,17.30
2018-09-12T00:59:55.914Z,17.20
2018-09-12T01:04:59.975Z,17.10
2018-09-12T01:10:04.066Z,17.10
2018-09-12T01:20:11.904Z,16.80
2018-09-12T01:30:24.431Z,16.70
2018-09-12T01:35:28.469Z,16.70
2018-09-12T01:40:32.510Z,16.50
2018-09-12T01:45:36.678Z,16.40
2018-09-12T01:50:40.721Z,16.20
2018-09-12T02:00:50.025Z,16.20
2018-09-12T02:05:54.056Z,16.20
2018-09-12T02:10:58.145Z,16.10
2018-09-12T02:16:02.168Z,16.00
2018-09-12T02:21:06.288Z,15.90
2018-09-12T02:26:10.333Z,15.90
2018-09-12T02:31:14.439Z,15.80
2018-09-12T02:51:35.979Z,15.60
2018-09-12T02:56:40.008Z,15.50
2018-09-12T03:17:01.951Z,15.30
2018-09-12T03:22:06.138Z,15.20
2018-09-12T03:27:10.156Z,15.00
2018-09-12T03:32:14.254Z,14.90
2018-09-12T03:37:18.310Z,14.90
2018-09-12T03:42:22.363Z,14.90
2018-09-12T03:52:30.267Z,14.80
2018-09-12T03:57:34.330Z,14.90
2018-09-12T04:07:42.201Z,14.80
2018-09-12T04:12:46.303Z,14.70
2018-09-12T04:17:50.394Z,14.80
2018-09-12T04:22:54.458Z,14.70
2018-09-12T04:27:58.602Z,14.60
2018-09-12T04:33:02.655Z,14.50
2018-09-12T04:53:18.858Z,14.60
2018-09-12T04:58:22.967Z,14.50
2018-09-12T05:03:27.100Z,14.50
2018-09-12T05:08:31.250Z,14.50
2018-09-12T05:13:35.328Z,14.50
2018-09-12T05:18:39.418Z,14.50
2018-09-12T05:28:47.308Z,14.50
2018-09-12T05:33:51.497Z,14.50
2018-09-12T05:38:55.557Z,14.40
2018-09-12T05:43:59.702Z,14.60
2018-09-12T05:54:08.030Z,14.90
2018-09-12T06:14:23.547Z,18.20
2018-09-12T06:19:27.613Z,18.90
2018-09-12T06:24:31.641Z,19.50
2018-09-12T06:29:35.707Z,20.00
2018-09-12T06:34:39.735Z,20.40
2018-09-12T06:39:43.765Z,21.10
2018-09-12T06:54:55.417Z,21.10
2018-09-12T06:59:59.518Z,21.70
2018-09-12T07:05:03.570Z,22.90
2018-09-12T07:10:07.636Z,23.50
2018-09-12T07:25:19.377Z,24.80
2018-09-12T07:30:23.481Z,25.40
2018-09-12T07:35:27.534Z,25.70
2018-09-12T07:40:32.497Z,26.40
2018-09-12T07:45:36.671Z,26.30
2018-09-12T07:50:49.179Z,26.10
2018-09-12T08:11:04.853Z,27.00
2018-09-12T08:21:13.390Z,27.60
2018-09-12T08:26:17.499Z,27.90
2018-09-12T08:31:21.553Z,28.10
2018-09-12T08:41:29.577Z,28.80
2018-09-12T08:46:33.643Z,28.80
2018-09-12T08:56:41.594Z,28.50
2018-09-12T09:06:49.501Z,28.20
2018-09-12T09:11:53.658Z,28.50
2018-09-12T09:22:01.629Z,28.40
2018-09-12T09:32:09.529Z,29.50
2018-09-12T09:37:13.625Z,29.60
2018-09-12T09:42:17.702Z,29.60
2018-09-12T09:47:21.777Z,29.00
2018-09-12T09:52:27.219Z,29.20
2018-09-12T09:57:31.286Z,29.10
2018-09-12T10:12:55.774Z,28.20
2018-09-12T10:23:03.694Z,27.80
2018-09-12T10:33:11.546Z,27.60
2018-09-12T10:38:15.848Z,27.40
2018-09-12T10:43:19.918Z,27.30
2018-09-12T10:48:23.965Z,27.20
2018-09-12T10:53:28.029Z,27.20
2018-09-12T10:58:32.041Z,27.10
2018-09-12T11:03:36.110Z,26.70
2018-09-12T11:13:43.993Z,26.70
2018-09-12T11:18:48.074Z,26.60
2018-09-12T11:44:07.730Z,26.10
2018-09-12T11:49:11.843Z,26.10
2018-09-12T11:59:19.772Z,26.20
2018-09-12T12:04:23.827Z,26.10
2018-09-12T12:09:27.999Z,26.10
2018-09-12T12:29:43.689Z,26.00
2018-09-12T12:34:47.758Z,25.80
2018-09-12T12:39:51.981Z,25.90
2018-09-12T12:49:59.971Z,25.90
2018-09-12T12:55:04.046Z,25.90
2018-09-12T13:05:12.048Z,26.00
2018-09-12T13:10:16.111Z,26.00
2018-09-12T13:25:27.766Z,26.30
2018-09-12T13:35:35.686Z,26.20
2018-09-12T13:45:43.538Z,26.20
2018-09-12T13:50:47.570Z,26.20
2018-09-12T13:55:51.681Z,26.20
2018-09-12T14:00:55.723Z,26.20
2018-09-12T14:06:00.282Z,26.10
2018-09-12T14:11:04.317Z,26.10
2018-09-12T14:21:12.461Z,26.10
2018-09-12T14:26:16.625Z,26.10
2018-09-12T14:31:20.797Z,26.10
2018-09-12T14:36:24.834Z,26.00
2018-09-12T14:41:28.962Z,25.90
2018-09-12T14:51:36.877Z,25.90
2018-09-12T14:56:41.887Z,26.00
2018-09-12T15:01:46.034Z,25.90
2018-09-12T15:11:53.862Z,25.70
2018-09-12T15:22:01.798Z,25.50
2018-09-12T15:47:22.317Z,24.40
2018-09-12T15:57:30.171Z,23.90
2018-09-12T16:17:52.369Z,23.20
2018-09-12T16:28:00.277Z,22.80
2018-09-12T16:33:04.865Z,22.70
2018-09-12T16:38:08.901Z,22.70
2018-09-12T16:43:12.942Z,22.50
2018-09-12T16:58:24.705Z,22.00
2018-09-12T17:03:28.809Z,21.90
2018-09-12T17:08:32.849Z,21.80
2018-09-12T17:13:36.929Z,21.80
2018-09-12T17:18:41.007Z,21.70
2018-09-12T17:23:45.134Z,21.50
2018-09-12T17:38:57.082Z,21.10
2018-09-12T18:19:28.325Z,19.90
2018-09-12T18:29:37.179Z,19.60
2018-09-12T18:39:45.126Z,19.40
2018-09-12T18:49:53.005Z,19.00
2018-09-12T18:54:57.065Z,18.80
2018-09-12T19:00:02.207Z,18.70
2018-09-12T19:05:06.707Z,18.60
2018-09-12T19:10:11.708Z,18.50
2018-09-12T19:15:15.826Z,18.30
2018-09-12T19:20:19.934Z,18.30
2018-09-12T19:25:24.043Z,18.20
2018-09-12T19:30:28.145Z,18.20
2018-09-12T19:35:32.221Z,18.10
2018-09-12T19:40:36.325Z,18.00
2018-09-12T19:45:40.405Z,17.90
2018-09-12T19:50:44.467Z,17.90
2018-09-12T19:55:48.545Z,17.90
2018-09-12T20:00:52.617Z,18.00
2018-09-12T20:05:56.709Z,18.00
2018-09-12T20:11:01.041Z,18.00
2018-09-12T20:16:05.329Z,18.10
2018-09-12T20:21:09.326Z,18.00
2018-09-12T20:26:13.420Z,18.00
2018-09-12T20:36:21.358Z,18.00
2018-09-12T20:41:25.391Z,18.10
2018-09-12T20:46:29.445Z,18.00
2018-09-12T20:51:33.502Z,18.10
2018-09-12T20:56:37.566Z,18.00
2018-09-12T21:01:41.611Z,18.00
2018-09-12T21:06:45.658Z,18.00
2018-09-12T21:11:50.013Z,17.90
2018-09-12T21:21:57.993Z,17.80
2018-09-12T21:27:02.194Z,17.70
2018-09-12T21:37:10.142Z,17.70
2018-09-12T21:42:14.219Z,17.60
2018-09-12T21:47:18.318Z,17.50
2018-09-12T21:52:22.393Z,17.40
2018-09-12T21:57:26.479Z,17.40
2018-09-12T22:07:34.495Z,17.40
2018-09-12T22:12:38.545Z,17.40
2018-09-12T22:17:42.574Z,17.40
2018-09-12T22:27:50.573Z,17.40
2018-09-12T22:32:54.687Z,17.40
2018-09-12T22:37:58.993Z,17.40
2018-09-12T22:43:03.063Z,17.30
2018-09-12T22:48:07.145Z,17.30
2018-09-12T22:53:11.215Z,17.30
2018-09-12T22:58:15.378Z,17.30
2018-09-12T23:03:20.298Z,17.30
2018-09-12T23:08:24.377Z,17.30
2018-09-12T23:13:28.971Z,17.30
2018-09-12T23:18:33.042Z,17.30
2018-09-12T23:23:37.144Z,17.20
2018-09-12T23:28:41.178Z,17.30
2018-09-12T23:33:51.901Z,17.20
2018-09-12T23:38:55.941Z,17.20
2018-09-12T23:49:04.209Z,17.30
2018-09-12T23:54:08.310Z,17.20
